Time;durP1;ratioP1;P1;durP2;ratioP2;P2;SDS_P1;SDS_P2;PMS_P1;PMS_P2;Temp;Humidity;BMP_temperature;BMP_pressure;BME280_temperature;BME280_humidity;BME280_pressure;Samples;Min_cycle;Max_cycle;Signal;HPM_P1;HPM_P2
2020/12/26 00:00:22;;;;;;;15.10;7.80;;;2.10;95.30;;;;;;5030955;28;20103;-89
2020/12/26 00:02:48;;;;;;;20.08;6.93;;;2.10;95.20;;;;;;5033190;28;20068;-90
2020/12/26 00:05:13;;;;;;;14.57;6.68;;;2.20;95.20;;;;;;5054271;28;20063;-89
2020/12/26 00:07:39;;;;;;;14.52;7.07;;;2.10;95.20;;;;;;5028744;28;20021;-89
2020/12/26 00:10:05;;;;;;;15.82;6.40;;;2.20;95.30;;;;;;5036506;28;20125;-90
2020/12/26 00:12:32;;;;;;;16.23;7.57;;;2.20;95.20;;;;;;5034192;28;20060;-89
2020/12/26 00:14:57;;;;;;;13.10;6.88;;;2.20;95.20;;;;;;5033192;28;20025;-89
2020/12/26 00:17:23;;;;;;;14.95;6.72;;;2.20;95.20;;;;;;5029905;28;20026;-90
2020/12/26 00:19:49;;;;;;;14.65;6.70;;;2.20;95.20;;;;;;5031040;28;20061;-89
2020/12/26 00:22:14;;;;;;;16.48;6.95;;;2.20;95.20;;;;;;5033195;28;20059;-89
2020/12/26 00:24:40;;;;;;;16.40;7.05;;;2.30;95.20;;;;;;5038470;28;20028;-89
2020/12/26 00:27:05;;;;;;;12.50;6.05;;;2.30;95.20;;;;;;5038060;28;20021;-89
2020/12/26 00:29:31;;;;;;;13.95;6.00;;;2.30;95.20;;;;;;5033114;28;20040;-89
2020/12/26 00:31:56;;;;;;;16.45;6.72;;;2.30;95.10;;;;;;5035579;28;20041;-89
2020/12/26 00:34:22;;;;;;;10.48;5.28;;;2.40;95.20;;;;;;5036867;28;20029;-89
2020/12/26 00:36:47;;;;;;;11.82;5.07;;;2.40;95.10;;;;;;5032101;28;20471;-89
2020/12/26 00:39:13;;;;;;;16.13;5.45;;;2.40;95.10;;;;;;5036880;28;20035;-89
2020/12/26 00:41:39;;;;;;;14.68;5.47;;;2.40;95.10;;;;;;5024563;28;20108;-89
2020/12/26 00:44:04;;;;;;;13.65;6.13;;;2.40;95.10;;;;;;5036379;28;20037;-89
2020/12/26 00:46:30;;;;;;;14.30;6.22;;;2.50;95.10;;;;;;5030911;28;20021;-88
2020/12/26 00:48:55;;;;;;;12.45;5.60;;;2.50;95.10;;;;;;5034188;28;20026;-90
2020/12/26 00:51:21;;;;;;;12.02;5.78;;;2.50;95.10;;;;;;5035747;28;20110;-89
2020/12/26 00:53:46;;;;;;;14.60;5.63;;;2.50;95.10;;;;;;5031176;28;20032;-89
2020/12/26 00:56:12;;;;;;;13.98;6.15;;;2.50;95.00;;;;;;5046885;28;20060;-89
2020/12/26 00:58:37;;;;;;;14.90;6.30;;;2.60;95.00;;;;;;5051626;28;20060;-89
2020/12/26 01:01:03;;;;;;;16.70;5.93;;;2.60;95.00;;;;;;5036719;28;20055;-89
2020/12/26 01:03:29;;;;;;;17.98;6.97;;;2.60;95.00;;;;;;5049221;28;20041;-88
2020/12/26 01:05:55;;;;;;;10.90;4.80;;;2.60;95.00;;;;;;5050995;28;20028;-88
2020/12/26 01:08:20;;;;;;;12.20;5.45;;;2.60;95.00;;;;;;5055207;28;20025;-89
2020/12/26 01:10:46;;;;;;;16.55;6.45;;;2.70;95.00;;;;;;5051941;28;20080;-89
2020/12/26 01:13:11;;;;;;;10.75;5.53;;;2.70;95.00;;;;;;5031821;28;20021;-88
2020/12/26 01:15:37;;;;;;;16.85;5.70;;;2.70;94.90;;;;;;5049701;28;20554;-89
2020/12/26 01:18:03;;;;;;;11.82;5.03;;;2.70;94.90;;;;;;5032177;28;20161;-88
2020/12/26 01:20:29;;;;;;;13.30;5.57;;;2.70;94.90;;;;;;5035660;28;20047;-88
2020/12/26 01:22:54;;;;;;;12.13;6.05;;;2.70;94.90;;;;;;5047680;28;20477;-88
2020/12/26 01:25:19;;;;;;;11.73;6.00;;;2.70;94.90;;;;;;5027499;28;20017;-88
2020/12/26 01:27:45;;;;;;;16.05;5.93;;;2.70;94.80;;;;;;5035954;28;20071;-88
2020/12/26 01:30:10;;;;;;;13.80;5.97;;;2.80;94.90;;;;;;5031302;28;20022;-87
2020/12/26 01:32:36;;;;;;;16.77;6.63;;;2.80;94.80;;;;;;5032372;28;20102;-88
2020/12/26 01:35:02;;;;;;;12.77;5.28;;;2.80;94.80;;;;;;5031433;28;20030;-88
2020/12/26 01:37:28;;;;;;;8.80;5.50;;;2.80;94.80;;;;;;5033323;28;20029;-88
2020/12/26 01:39:53;;;;;;;11.02;5.70;;;2.80;94.80;;;;;;5034468;28;20021;-88
2020/12/26 01:42:19;;;;;;;17.83;6.40;;;2.80;94.80;;;;;;5037024;28;20024;-88
2020/12/26 01:44:45;;;;;;;13.68;6.28;;;2.80;94.80;;;;;;5039449;28;20021;-88
2020/12/26 01:47:13;;;;;;;16.50;6.18;;;2.90;94.80;;;;;;5049356;28;20025;-88
2020/12/26 01:49:39;;;;;;;14.70;6.20;;;2.90;94.70;;;;;;5049786;28;20051;-88
2020/12/26 01:52:08;;;;;;;12.60;5.78;;;2.90;94.70;;;;;;5032920;28;20033;-88
2020/12/26 01:54:34;;;;;;;10.70;4.68;;;2.90;94.70;;;;;;5034933;28;20025;-89
2020/12/26 01:56:59;;;;;;;10.00;5.10;;;3.00;94.70;;;;;;5037890;28;20052;-88
2020/12/26 01:59:25;;;;;;;10.15;4.95;;;2.90;94.70;;;;;;5040437;28;20098;-87
2020/12/26 02:01:51;;;;;;;14.05;5.82;;;3.00;94.70;;;;;;5034726;28;20424;-88
2020/12/26 02:04:16;;;;;;;19.00;5.50;;;3.00;94.60;;;;;;5034329;28;20029;-87
2020/12/26 02:06:43;;;;;;;9.07;5.30;;;3.00;94.60;;;;;;5036895;28;20036;-88
2020/12/26 02:09:12;;;;;;;13.05;4.82;;;3.00;94.60;;;;;;5033694;28;20136;-88
2020/12/26 02:11:38;;;;;;;10.98;4.82;;;3.00;94.60;;;;;;5032585;28;20063;-88
2020/12/26 02:14:03;;;;;;;13.32;5.07;;;3.10;94.60;;;;;;5033465;28;20071;-87
2020/12/26 02:16:29;;;;;;;11.32;5.15;;;3.10;94.50;;;;;;5031628;28;20535;-88
2020/12/26 02:18:54;;;;;;;10.45;4.28;;;3.10;94.50;;;;;;5037178;28;20041;-87
2020/12/26 02:21:23;;;;;;;14.43;4.70;;;3.10;94.50;;;;;;5033690;28;20025;-87
2020/12/26 02:23:50;;;;;;;10.60;4.57;;;3.10;94.50;;;;;;5049666;28;20017;-88
2020/12/26 02:26:27;;;;;;;11.27;4.82;;;3.10;94.50;;;;;;5033086;28;20028;-88
2020/12/26 02:28:53;;;;;;;8.63;4.18;;;3.10;94.50;;;;;;5035095;28;20021;-88
2020/12/26 02:31:18;;;;;;;11.55;4.82;;;3.10;94.50;;;;;;5049512;28;20512;-87
2020/12/26 02:33:44;;;;;;;8.98;4.85;;;3.10;94.60;;;;;;5038334;28;20033;-87
2020/12/26 02:36:09;;;;;;;11.05;4.97;;;3.10;94.60;;;;;;5026563;28;20048;-87
2020/12/26 02:38:35;;;;;;;10.00;4.85;;;3.20;94.60;;;;;;5031508;28;20021;-87
2020/12/26 02:41:00;;;;;;;10.00;4.03;;;3.10;94.70;;;;;;5027639;28;20022;-86
2020/12/26 02:43:27;;;;;;;11.38;5.45;;;3.20;94.70;;;;;;5048945;28;20029;-87
2020/12/26 02:45:54;;;;;;;12.55;5.22;;;3.20;94.70;;;;;;5032536;28;20028;-87
2020/12/26 02:48:20;;;;;;;10.30;4.32;;;3.20;94.80;;;;;;5056882;28;20085;-87
2020/12/26 02:50:47;;;;;;;11.52;4.57;;;3.20;94.80;;;;;;5038956;28;20064;-88
2020/12/26 02:53:12;;;;;;;6.32;3.60;;;3.20;94.80;;;;;;5045135;28;20044;-87
2020/12/26 02:55:38;;;;;;;8.68;3.58;;;3.20;94.90;;;;;;5033021;28;20025;-87
2020/12/26 02:58:03;;;;;;;16.05;4.43;;;3.30;95.20;;;;;;5036258;28;20054;-87
2020/12/26 03:00:29;;;;;;;8.32;4.10;;;3.30;94.90;;;;;;5035699;28;20044;-87
2020/12/26 03:02:55;;;;;;;8.70;4.32;;;3.30;94.90;;;;;;5032050;28;20025;-87
2020/12/26 03:05:21;;;;;;;10.20;3.78;;;3.30;94.90;;;;;;5045226;28;20033;-87
2020/12/26 03:07:47;;;;;;;9.30;4.43;;;3.30;94.90;;;;;;5035288;28;20029;-88
2020/12/26 03:10:12;;;;;;;9.13;4.60;;;3.40;95.00;;;;;;5049001;28;20036;-88
2020/12/26 03:12:38;;;;;;;9.90;4.15;;;3.40;94.90;;;;;;5029003;28;20028;-88
2020/12/26 03:15:04;;;;;;;9.20;5.50;;;3.30;94.90;;;;;;5051335;28;20030;-89
2020/12/26 03:17:30;;;;;;;10.98;5.65;;;3.30;94.90;;;;;;5043270;28;20028;-89
2020/12/26 03:19:58;;;;;;;11.25;5.43;;;3.30;94.90;;;;;;5037296;28;20056;-88
2020/12/26 03:22:27;;;;;;;16.40;5.45;;;3.30;95.00;;;;;;5037528;28;20019;-86
2020/12/26 03:24:53;;;;;;;14.45;5.57;;;3.20;95.00;;;;;;5025301;28;20401;-88
2020/12/26 03:27:19;;;;;;;13.85;6.13;;;3.20;95.00;;;;;;5031448;28;20048;-89
2020/12/26 03:29:44;;;;;;;11.02;5.32;;;3.10;95.00;;;;;;5029513;28;20040;-87
2020/12/26 03:32:11;;;;;;;10.15;5.65;;;3.10;95.10;;;;;;5028986;28;20029;-87
2020/12/26 03:34:36;;;;;;;11.82;5.30;;;3.00;95.10;;;;;;5031837;28;20025;-88
2020/12/26 03:37:04;;;;;;;11.05;5.70;;;3.00;95.10;;;;;;5050440;28;20040;-87
2020/12/26 03:39:30;;;;;;;12.02;5.40;;;2.90;95.10;;;;;;5039771;28;20080;-88
2020/12/26 03:41:56;;;;;;;9.18;5.30;;;2.90;95.20;;;;;;5039697;28;20028;-89
2020/12/26 03:44:22;;;;;;;9.80;5.22;;;2.80;95.20;;;;;;5050147;28;20036;-87
2020/12/26 03:46:47;;;;;;;13.85;5.20;;;2.80;95.30;;;;;;5035890;28;20025;-88
2020/12/26 03:49:13;;;;;;;10.48;5.00;;;2.70;95.30;;;;;;5024124;28;20075;-88
2020/12/26 03:51:38;;;;;;;6.28;3.85;;;2.60;95.30;;;;;;5032975;28;20107;-88
2020/12/26 03:54:04;;;;;;;9.65;5.25;;;2.60;95.30;;;;;;5033258;28;20017;-88
2020/12/26 03:56:29;;;;;;;11.25;5.43;;;2.60;95.40;;;;;;5028014;28;20091;-89
2020/12/26 03:58:55;;;;;;;10.10;4.85;;;2.60;95.50;;;;;;5051181;28;20029;-88
2020/12/26 04:01:21;;;;;;;7.35;4.30;;;2.50;95.50;;;;;;5051364;28;20025;-86
2020/12/26 04:03:46;;;;;;;8.07;4.15;;;2.60;95.50;;;;;;5049816;28;20037;-86
2020/12/26 04:06:12;;;;;;;11.48;4.53;;;2.50;95.50;;;;;;5044321;28;20032;-86
2020/12/26 04:08:37;;;;;;;10.40;5.35;;;2.60;95.60;;;;;;5035191;28;20025;-87
2020/12/26 04:11:02;;;;;;;9.30;4.10;;;2.50;95.50;;;;;;5024400;28;20618;-87
2020/12/26 04:13:28;;;;;;;7.68;3.53;;;2.50;95.60;;;;;;5032653;28;20021;-86
2020/12/26 04:15:53;;;;;;;13.15;3.72;;;2.50;95.60;;;;;;5036589;28;20405;-88
2020/12/26 04:18:19;;;;;;;10.88;4.28;;;2.50;95.70;;;;;;5035955;28;20055;-89
2020/12/26 04:20:44;;;;;;;10.68;3.80;;;2.50;95.70;;;;;;5048340;28;20064;-88
2020/12/26 04:23:10;;;;;;;6.43;3.95;;;2.50;95.80;;;;;;5051113;28;20033;-88
2020/12/26 04:25:35;;;;;;;9.68;4.32;;;2.50;95.80;;;;;;5047602;28;20067;-88
2020/12/26 04:28:01;;;;;;;8.95;4.13;;;2.50;95.80;;;;;;5033664;28;20024;-88
2020/12/26 04:30:26;;;;;;;13.80;4.15;;;2.50;95.80;;;;;;5045907;28;20477;-88
2020/12/26 04:32:52;;;;;;;9.20;4.22;;;2.60;96.10;;;;;;5047172;28;20184;-88
2020/12/26 04:35:20;;;;;;;7.00;3.83;;;2.60;95.80;;;;;;5027447;28;20075;-86
2020/12/26 04:37:47;;;;;;;14.50;4.03;;;2.50;95.70;;;;;;5028743;28;20097;-86
2020/12/26 04:40:13;;;;;;;6.35;3.92;;;2.50;95.80;;;;;;5030106;28;20029;-88
2020/12/26 04:42:39;;;;;;;8.95;4.65;;;2.60;95.80;;;;;;5051587;28;20495;-86
2020/12/26 04:45:05;;;;;;;7.00;4.88;;;2.50;95.80;;;;;;5051395;28;20636;-85
2020/12/26 04:47:39;;;;;;;8.65;3.53;;;2.50;95.80;;;;;;5036099;28;20048;-86
2020/12/26 04:50:06;;;;;;;8.68;4.50;;;2.50;95.80;;;;;;5053126;28;20409;-88
2020/12/26 04:52:35;;;;;;;15.70;5.25;;;2.50;95.90;;;;;;5049518;28;20026;-88
2020/12/26 04:55:05;;;;;;;10.00;4.45;;;2.40;95.80;;;;;;5047723;28;20032;-88
2020/12/26 04:57:37;;;;;;;7.40;4.78;;;2.40;95.80;;;;;;5034462;28;20029;-86
2020/12/26 05:00:06;;;;;;;17.13;4.57;;;2.40;95.90;;;;;;5033588;28;20021;-88
2020/12/26 05:02:40;;;;;;;9.75;4.97;;;2.40;95.90;;;;;;5023293;28;20484;-86
2020/12/26 05:05:05;;;;;;;12.73;6.13;;;2.40;96.00;;;;;;5025795;28;20104;-85
2020/12/26 05:07:32;;;;;;;12.75;6.88;;;2.40;96.10;;;;;;5027459;28;20115;-85
2020/12/26 05:09:58;;;;;;;9.82;5.72;;;2.40;96.10;;;;;;5027926;28;20029;-86
2020/12/26 05:12:23;;;;;;;11.48;6.30;;;2.40;96.00;;;;;;5029024;28;20078;-86
2020/12/26 05:14:52;;;;;;;11.30;7.32;;;2.40;96.00;;;;;;5029435;28;20025;-86
2020/12/26 05:17:19;;;;;;;12.30;7.05;;;2.40;96.10;;;;;;5046436;28;20096;-86
2020/12/26 05:19:46;;;;;;;13.95;6.55;;;2.40;96.10;;;;;;5029153;28;20034;-86
2020/12/26 05:22:12;;;;;;;15.75;6.47;;;2.40;96.10;;;;;;5030674;28;20033;-86
2020/12/26 05:24:37;;;;;;;15.80;7.07;;;2.40;96.20;;;;;;5029842;28;20086;-86
2020/12/26 05:27:03;;;;;;;14.30;6.35;;;2.40;96.20;;;;;;5035172;28;20477;-87
2020/12/26 05:29:31;;;;;;;12.95;7.25;;;2.50;96.30;;;;;;5046834;28;20064;-87
2020/12/26 05:31:58;;;;;;;17.13;6.75;;;2.50;96.20;;;;;;5030963;28;20040;-87
2020/12/26 05:34:33;;;;;;;12.30;6.47;;;2.50;96.20;;;;;;5032764;28;20032;-86
2020/12/26 05:37:00;;;;;;;13.15;7.07;;;2.40;96.20;;;;;;5039565;28;20029;-86
2020/12/26 05:39:38;;;;;;;14.77;7.72;;;2.40;96.20;;;;;;5029100;28;20037;-87
2020/12/26 05:42:05;;;;;;;19.35;8.82;;;2.50;96.20;;;;;;5026484;28;20029;-87
2020/12/26 05:44:33;;;;;;;15.75;8.30;;;2.40;96.20;;;;;;5037443;28;20388;-89
2020/12/26 05:47:01;;;;;;;15.73;8.23;;;2.50;96.20;;;;;;5036984;28;20469;-89
2020/12/26 05:49:27;;;;;;;15.52;9.50;;;2.50;96.20;;;;;;5029453;28;20118;-89
2020/12/26 05:51:57;;;;;;;19.13;9.57;;;2.40;96.20;;;;;;5030364;28;20037;-89
2020/12/26 05:54:24;;;;;;;14.15;8.90;;;2.40;96.20;;;;;;5032058;28;20170;-87
2020/12/26 05:56:49;;;;;;;17.77;9.65;;;2.40;96.20;;;;;;5030961;28;20033;-88
2020/12/26 05:59:23;;;;;;;18.45;10.57;;;2.40;96.20;;;;;;5031428;28;20021;-88
2020/12/26 06:01:49;;;;;;;17.40;10.40;;;2.40;96.20;;;;;;5028420;28;20032;-88
2020/12/26 06:04:19;;;;;;;16.95;10.70;;;2.40;96.20;;;;;;5027916;28;20033;-88
2020/12/26 06:06:51;;;;;;;17.05;11.35;;;2.40;96.30;;;;;;5034882;28;20095;-88
2020/12/26 06:09:19;;;;;;;18.05;10.57;;;2.40;96.40;;;;;;5029924;28;20063;-88
2020/12/26 06:11:46;;;;;;;19.25;11.40;;;2.50;96.40;;;;;;5034858;28;20040;-88
2020/12/26 06:14:17;;;;;;;20.38;11.65;;;2.40;96.30;;;;;;5030723;28;20056;-88
2020/12/26 06:16:49;;;;;;;17.35;11.20;;;2.50;96.40;;;;;;5029666;28;20539;-87
2020/12/26 06:19:17;;;;;;;21.07;11.63;;;2.50;96.40;;;;;;5033596;28;20116;-88
2020/12/26 06:21:44;;;;;;;17.88;12.35;;;2.50;96.40;;;;;;5038592;28;20066;-88
2020/12/26 06:24:11;;;;;;;18.50;11.73;;;2.60;96.40;;;;;;5036533;28;20057;-88
2020/12/26 06:26:46;;;;;;;17.90;11.85;;;2.60;96.30;;;;;;5038385;28;20468;-87
2020/12/26 06:29:15;;;;;;;23.52;12.75;;;2.60;96.20;;;;;;5034345;28;20082;-88
2020/12/26 06:31:44;;;;;;;17.63;12.35;;;2.50;96.10;;;;;;5028535;28;20432;-88
2020/12/26 06:34:10;;;;;;;21.30;13.20;;;2.50;96.10;;;;;;5035858;28;20032;-88
2020/12/26 06:36:36;;;;;;;25.27;13.60;;;2.50;96.20;;;;;;5038354;28;20021;-88
2020/12/26 06:39:25;;;;;;;15.77;11.38;;;2.50;96.20;;;;;;5036490;28;20057;-88
2020/12/26 06:42:13;;;;;;;23.58;13.55;;;2.50;96.10;;;;;;5031731;28;20044;-88
2020/12/26 06:44:39;;;;;;;20.95;13.52;;;2.50;96.20;;;;;;5032063;28;20028;-88
2020/12/26 06:47:04;;;;;;;20.75;13.13;;;2.40;96.20;;;;;;5027332;28;20116;-88
2020/12/26 06:49:30;;;;;;;19.27;12.93;;;2.40;96.30;;;;;;5034092;28;20026;-89
2020/12/26 06:51:56;;;;;;;24.25;13.95;;;2.40;96.30;;;;;;5032909;28;20124;-88
2020/12/26 06:54:39;;;;;;;18.08;12.88;;;2.40;96.60;;;;;;5034001;28;20029;-87
2020/12/26 06:57:04;;;;;;;21.15;12.35;;;2.40;96.40;;;;;;5034681;28;20033;-87
2020/12/26 06:59:35;;;;;;;24.75;14.93;;;2.40;96.40;;;;;;5027274;28;20666;-88
2020/12/26 07:02:06;;;;;;;19.73;13.02;;;2.50;96.40;;;;;;5032776;28;20071;-88
2020/12/26 07:04:39;;;;;;;25.95;15.13;;;2.50;96.40;;;;;;5035905;28;20029;-88
2020/12/26 07:07:05;;;;;;;21.85;13.18;;;2.60;96.40;;;;;;5027907;28;20035;-87
2020/12/26 07:09:37;;;;;;;24.90;13.75;;;2.60;96.30;;;;;;5034105;28;20116;-88
2020/12/26 07:12:07;;;;;;;23.15;13.57;;;2.60;96.30;;;;;;5033594;28;20044;-88
2020/12/26 07:14:49;;;;;;;18.73;12.13;;;2.60;96.30;;;;;;5044914;28;20497;-88
2020/12/26 07:17:18;;;;;;;25.30;11.77;;;2.60;96.30;;;;;;5052062;28;20048;-87
2020/12/26 07:19:44;;;;;;;23.90;12.23;;;2.60;96.30;;;;;;5055333;28;20291;-87
2020/12/26 07:22:22;;;;;;;18.10;11.00;;;2.70;96.20;;;;;;5047460;28;20060;-87
2020/12/26 07:24:50;;;;;;;17.30;10.73;;;2.70;96.20;;;;;;5053392;28;20033;-87
2020/12/26 07:27:30;;;;;;;18.80;11.55;;;2.70;96.30;;;;;;5051599;28;20027;-87
2020/12/26 07:30:13;;;;;;;20.20;11.13;;;2.70;96.30;;;;;;5046349;28;21931;-86
2020/12/26 07:32:57;;;;;;;16.17;10.48;;;2.70;96.20;;;;;;5024467;28;20132;-87
2020/12/26 07:35:22;;;;;;;18.67;11.00;;;2.70;96.10;;;;;;5021544;28;20021;-88
2020/12/26 07:37:51;;;;;;;18.45;9.50;;;2.70;96.10;;;;;;5026446;28;20116;-88
2020/12/26 07:40:33;;;;;;;16.25;10.85;;;2.70;96.20;;;;;;5026073;28;20033;-88
2020/12/26 07:43:09;;;;;;;17.50;10.38;;;2.70;96.20;;;;;;5033944;28;20029;-88
2020/12/26 07:45:35;;;;;;;14.30;9.82;;;2.70;96.20;;;;;;5046075;28;20025;-88
2020/12/26 07:48:02;;;;;;;15.57;9.73;;;2.80;96.20;;;;;;5052456;28;20647;-88
2020/12/26 07:50:30;;;;;;;16.33;9.45;;;2.80;96.10;;;;;;5039284;28;20037;-87
2020/12/26 07:52:58;;;;;;;18.85;10.73;;;2.80;96.10;;;;;;5027041;28;20033;-87
2020/12/26 07:55:26;;;;;;;16.33;9.55;;;2.80;96.00;;;;;;5052447;28;20060;-88
2020/12/26 07:58:04;;;;;;;14.35;10.05;;;2.80;96.00;;;;;;5028050;28;20057;-87
2020/12/26 08:00:36;;;;;;;20.83;9.40;;;2.90;96.10;;;;;;5041084;28;20096;-87
2020/12/26 08:03:03;;;;;;;16.92;8.52;;;2.90;96.00;;;;;;5024038;28;20055;-87
2020/12/26 08:05:34;;;;;;;23.60;10.43;;;2.90;96.30;;;;;;5044648;28;20075;-88
2020/12/26 08:08:00;;;;;;;14.43;8.75;;;2.90;96.00;;;;;;5036119;28;20052;-87
2020/12/26 08:10:27;;;;;;;14.75;9.00;;;3.00;96.00;;;;;;5053017;28;20037;-87
2020/12/26 08:12:58;;;;;;;12.60;8.30;;;3.00;96.00;;;;;;5039259;28;20028;-87
2020/12/26 08:15:33;;;;;;;17.83;8.38;;;3.10;96.00;;;;;;5031850;28;20025;-88
2020/12/26 08:18:01;;;;;;;15.20;8.48;;;3.10;95.90;;;;;;5030344;28;20036;-88
2020/12/26 08:20:27;;;;;;;16.08;7.95;;;3.20;95.90;;;;;;5049812;28;20120;-88
2020/12/26 08:22:53;;;;;;;16.63;8.65;;;3.20;95.80;;;;;;5033054;28;20093;-88
2020/12/26 08:25:22;;;;;;;14.85;7.75;;;3.20;95.80;;;;;;5028444;28;20104;-88
2020/12/26 08:27:48;;;;;;;12.40;7.78;;;3.20;95.70;;;;;;5029646;28;20021;-88
2020/12/26 08:30:32;;;;;;;16.75;7.40;;;3.20;95.70;;;;;;5029827;28;20052;-89
2020/12/26 08:33:22;;;;;;;15.90;7.82;;;3.30;95.70;;;;;;5021874;28;20029;-87
2020/12/26 08:35:51;;;;;;;20.70;9.23;;;3.30;95.70;;;;;;5033181;28;20033;-89
2020/12/26 08:38:19;;;;;;;16.48;8.40;;;3.30;95.70;;;;;;5035497;28;20029;-88
2020/12/26 08:40:54;;;;;;;20.10;8.02;;;3.40;95.70;;;;;;5022720;28;20033;-88
2020/12/26 08:43:19;;;;;;;12.45;8.10;;;3.50;95.70;;;;;;5030001;28;20485;-88
2020/12/26 08:45:45;;;;;;;15.35;6.55;;;3.60;95.70;;;;;;5025630;28;20087;-88
2020/12/26 08:48:18;;;;;;;12.00;6.78;;;3.60;95.50;;;;;;5035159;28;20119;-89
2020/12/26 08:50:58;;;;;;;9.98;6.38;;;3.70;95.50;;;;;;5033901;28;20767;-88
2020/12/26 08:53:24;;;;;;;13.20;6.40;;;3.60;95.30;;;;;;5027809;28;20077;-89
2020/12/26 08:55:54;;;;;;;16.65;7.07;;;3.60;95.20;;;;;;5026908;28;20482;-86
2020/12/26 08:58:31;;;;;;;10.30;5.45;;;3.70;95.30;;;;;;5028317;28;20053;-87
2020/12/26 09:01:02;;;;;;;11.55;5.88;;;3.70;95.20;;;;;;5023057;28;20028;-88
2020/12/26 09:03:29;;;;;;;11.10;5.88;;;3.70;95.10;;;;;;5043530;28;20106;-87
2020/12/26 09:05:56;;;;;;;12.02;6.05;;;3.60;95.10;;;;;;5032189;28;20029;-87
2020/12/26 09:08:35;;;;;;;12.63;5.85;;;3.60;95.10;;;;;;5036779;28;20025;-88
2020/12/26 09:11:12;;;;;;;14.13;5.45;;;3.60;94.90;;;;;;5043057;28;20447;-87
2020/12/26 09:13:46;;;;;;;10.65;5.68;;;3.60;94.90;;;;;;5023928;28;20516;-88
2020/12/26 09:16:14;;;;;;;8.60;5.53;;;3.60;95.00;;;;;;5022119;28;20041;-88
2020/12/26 09:18:42;;;;;;;12.20;5.35;;;3.60;95.00;;;;;;5029728;28;20394;-88
2020/12/26 09:21:19;;;;;;;9.30;4.68;;;3.70;95.00;;;;;;5029882;28;20028;-87
2020/12/26 09:23:46;;;;;;;12.02;4.88;;;3.70;95.00;;;;;;5043479;28;20025;-88
2020/12/26 09:26:18;;;;;;;9.55;4.57;;;3.80;95.00;;;;;;5033215;28;20370;-87
2020/12/26 09:28:57;;;;;;;13.02;4.72;;;3.90;94.90;;;;;;5034201;28;20489;-88
2020/12/26 09:31:29;;;;;;;13.23;5.00;;;3.90;94.70;;;;;;5031300;28;20048;-88
2020/12/26 09:33:58;;;;;;;9.18;4.65;;;3.90;94.60;;;;;;5027884;28;20025;-88
2020/12/26 09:36:26;;;;;;;9.77;4.60;;;3.90;94.50;;;;;;5029973;28;20037;-87
2020/12/26 09:38:52;;;;;;;8.00;4.13;;;3.90;94.40;;;;;;5030953;28;20336;-87
2020/12/26 09:41:23;;;;;;;12.73;4.30;;;3.90;94.30;;;;;;5025600;28;20026;-87
2020/12/26 09:43:50;;;;;;;8.65;4.60;;;3.90;94.30;;;;;;5031302;28;20028;-87
2020/12/26 09:46:16;;;;;;;7.57;4.20;;;3.80;94.20;;;;;;5029392;28;20539;-86
2020/12/26 09:48:42;;;;;;;6.32;4.13;;;3.80;94.20;;;;;;5047743;28;20033;-88
2020/12/26 09:51:15;;;;;;;9.07;4.68;;;3.80;94.30;;;;;;5026981;28;20083;-87
2020/12/26 09:53:40;;;;;;;;;;;3.80;94.30;;;;;;5029607;28;20057;-88
2020/12/26 09:56:07;;;;;;;11.07;3.65;;;3.80;94.40;;;;;;5031975;28;20423;-88
2020/12/26 09:58:33;;;;;;;7.60;4.18;;;3.90;94.30;;;;;;5030524;28;20435;-87
2020/12/26 10:00:58;;;;;;;8.48;3.45;;;4.00;94.20;;;;;;5043598;28;20029;-87
2020/12/26 10:03:24;;;;;;;8.85;3.63;;;4.10;94.00;;;;;;5031038;28;20590;-86
2020/12/26 10:05:49;;;;;;;7.60;2.95;;;4.10;94.00;;;;;;5031263;28;20021;-87
2020/12/26 10:08:15;;;;;;;9.38;3.00;;;4.20;94.00;;;;;;5045027;28;20039;-87
2020/12/26 10:10:40;;;;;;;6.07;3.20;;;4.20;93.80;;;;;;5048952;28;20437;-87
2020/12/26 10:13:06;;;;;;;6.07;3.15;;;4.30;93.70;;;;;;5030972;28;20033;-87
2020/12/26 10:15:31;;;;;;;8.35;2.78;;;4.30;93.60;;;;;;5052471;28;20537;-88
2020/12/26 10:17:57;;;;;;;6.70;2.63;;;4.40;93.50;;;;;;5032843;28;20041;-88
2020/12/26 10:20:23;;;;;;;10.35;3.03;;;4.40;93.50;;;;;;5053048;28;20396;-89
2020/12/26 10:22:48;;;;;;;6.15;2.70;;;4.40;93.40;;;;;;5050124;28;20029;-89
2020/12/26 10:25:14;;;;;;;4.53;2.13;;;4.50;93.30;;;;;;5038299;28;20017;-89
2020/12/26 10:27:39;;;;;;;5.78;2.65;;;4.50;93.10;;;;;;5028494;28;20036;-87
2020/12/26 10:30:05;;;;;;;8.23;2.33;;;4.50;93.10;;;;;;5026980;28;20025;-87
2020/12/26 10:32:30;;;;;;;7.65;2.30;;;4.60;92.90;;;;;;5031112;28;20032;-87
2020/12/26 10:34:56;;;;;;;5.25;2.03;;;4.60;92.90;;;;;;5029547;28;20037;-88
2020/12/26 10:37:22;;;;;;;4.40;2.30;;;4.60;92.70;;;;;;5027213;28;20061;-88
2020/12/26 10:39:47;;;;;;;12.05;2.65;;;4.60;92.70;;;;;;5027519;28;20033;-87
2020/12/26 10:42:13;;;;;;;5.75;2.22;;;4.60;92.70;;;;;;5031322;28;20029;-88
2020/12/26 10:44:38;;;;;;;3.17;1.77;;;4.60;92.60;;;;;;5034333;28;20024;-88
2020/12/26 10:47:04;;;;;;;8.10;2.25;;;4.70;92.60;;;;;;5039611;28;20025;-87
2020/12/26 10:49:29;;;;;;;6.38;1.85;;;4.70;92.60;;;;;;5052560;28;20029;-89
2020/12/26 10:51:55;;;;;;;6.55;2.08;;;4.70;92.40;;;;;;5028093;28;20132;-86
2020/12/26 10:54:20;;;;;;;8.30;2.20;;;4.70;92.40;;;;;;5034665;28;20084;-89
2020/12/26 10:56:47;;;;;;;4.25;1.70;;;4.70;92.40;;;;;;5041451;28;20048;-89
2020/12/26 10:59:13;;;;;;;9.27;2.92;;;4.70;92.40;;;;;;5035860;28;20512;-88
2020/12/26 11:01:38;;;;;;;5.72;2.15;;;4.80;92.40;;;;;;5032636;28;20029;-87
2020/12/26 11:04:04;;;;;;;6.05;1.58;;;4.80;92.20;;;;;;5027429;28;20032;-87
2020/12/26 11:06:29;;;;;;;9.38;1.95;;;4.80;92.20;;;;;;5033190;28;20183;-87
2020/12/26 11:08:55;;;;;;;7.05;2.10;;;4.90;92.20;;;;;;5030854;28;20029;-88
2020/12/26 11:11:21;;;;;;;4.63;1.38;;;4.90;92.10;;;;;;5033548;28;20057;-88
2020/12/26 11:13:46;;;;;;;3.65;1.40;;;5.00;92.10;;;;;;5025274;28;20825;-89
2020/12/26 11:16:13;;;;;;;5.47;1.38;;;5.00;92.00;;;;;;5030476;28;20397;-89
2020/12/26 11:18:39;;;;;;;7.35;2.08;;;5.00;92.00;;;;;;5035025;28;20062;-89
2020/12/26 11:21:05;;;;;;;5.63;2.20;;;5.00;91.90;;;;;;5039292;28;20504;-89
2020/12/26 11:23:31;;;;;;;6.50;1.40;;;5.00;92.00;;;;;;5032489;28;20080;-89
2020/12/26 11:25:57;;;;;;;5.47;1.60;;;5.10;91.90;;;;;;5029486;28;20048;-89
2020/12/26 11:28:23;;;;;;;8.32;1.83;;;5.10;91.80;;;;;;5030532;28;20566;-88
2020/12/26 11:30:49;;;;;;;4.28;1.25;;;5.10;91.80;;;;;;5034912;28;20045;-89
2020/12/26 11:33:14;;;;;;;5.07;1.40;;;5.10;91.80;;;;;;5032644;28;20047;-89
2020/12/26 11:35:40;;;;;;;5.15;1.60;;;5.10;91.80;;;;;;5029760;28;20477;-87
2020/12/26 11:38:05;;;;;;;6.07;1.50;;;5.10;91.70;;;;;;5026766;28;20036;-88
2020/12/26 11:40:31;;;;;;;9.13;1.80;;;5.10;91.70;;;;;;5030394;28;20159;-87
2020/12/26 11:42:56;;;;;;;6.40;1.77;;;5.10;91.60;;;;;;5034664;28;20029;-88
2020/12/26 11:45:22;;;;;;;5.15;1.25;;;5.20;91.40;;;;;;5033794;28;20029;-89
2020/12/26 11:47:47;;;;;;;6.05;1.42;;;5.20;91.40;;;;;;5033792;28;20033;-89
2020/12/26 11:50:13;;;;;;;5.68;1.15;;;5.20;91.30;;;;;;5029717;28;20113;-89
2020/12/26 11:52:38;;;;;;;8.48;1.73;;;5.20;91.30;;;;;;5035251;28;20028;-87
2020/12/26 11:55:04;;;;;;;3.72;1.35;;;5.20;91.00;;;;;;5020091;28;20025;-87
2020/12/26 11:57:29;;;;;;;5.95;1.63;;;5.30;91.30;;;;;;5046799;28;20033;-89
2020/12/26 11:59:55;;;;;;;5.70;1.38;;;5.30;91.00;;;;;;5028167;28;20424;-88
2020/12/26 12:02:21;;;;;;;7.35;1.30;;;5.20;91.00;;;;;;5027781;28;20033;-89
2020/12/26 12:04:46;;;;;;;6.35;1.45;;;5.30;91.00;;;;;;5026284;28;20033;-89
2020/12/26 12:07:13;;;;;;;3.90;1.45;;;5.30;91.00;;;;;;5027657;28;20079;-89
2020/12/26 12:09:39;;;;;;;7.78;1.58;;;5.30;91.00;;;;;;5022293;28;20120;-88
2020/12/26 12:12:04;;;;;;;6.30;1.27;;;5.20;90.80;;;;;;5027942;28;20129;-88
2020/12/26 12:14:30;;;;;;;4.35;1.35;;;5.20;90.80;;;;;;5035927;28;20599;-89
2020/12/26 12:16:55;;;;;;;5.90;1.45;;;5.30;90.90;;;;;;5038411;28;20063;-88
2020/12/26 12:19:21;;;;;;;5.53;1.42;;;5.30;90.80;;;;;;5034334;28;20500;-88
2020/12/26 12:21:46;;;;;;;4.82;1.05;;;5.40;90.90;;;;;;5038044;28;20071;-88
2020/12/26 12:24:12;;;;;;;6.57;1.23;;;5.40;90.70;;;;;;5025144;28;20026;-88
2020/12/26 12:26:38;;;;;;;5.35;1.48;;;5.40;90.60;;;;;;5029227;28;20100;-88
2020/12/26 12:29:03;;;;;;;6.65;1.33;;;5.40;90.60;;;;;;5038281;28;20025;-88
2020/12/26 12:31:36;;;;;;;7.15;1.63;;;5.50;90.50;;;;;;5032847;28;20048;-89
2020/12/26 12:34:01;;;;;;;5.35;1.27;;;5.50;90.50;;;;;;5029521;28;20032;-89
2020/12/26 12:36:27;;;;;;;8.98;1.48;;;5.50;90.30;;;;;;5027027;28;20033;-89
2020/12/26 12:38:52;;;;;;;3.65;1.00;;;5.50;90.30;;;;;;5035948;28;20082;-89
2020/12/26 12:41:18;;;;;;;4.68;1.52;;;5.60;90.40;;;;;;5029670;28;20025;-89
2020/12/26 12:43:43;;;;;;;5.65;1.35;;;5.60;90.30;;;;;;5030865;28;20074;-89
2020/12/26 12:46:10;;;;;;;6.38;1.45;;;5.60;90.20;;;;;;5032546;28;20025;-88
2020/12/26 12:48:36;;;;;;;7.45;1.38;;;5.60;90.10;;;;;;5024126;28;20021;-89
2020/12/26 12:51:01;;;;;;;2.95;1.48;;;5.70;90.10;;;;;;5037430;28;20056;-89